createdAt,value
2018-06-20T00:00:41.116Z,19.71
2018-06-20T00:03:20.743Z,19.70
2018-06-20T00:06:01.959Z,19.66
2018-06-20T00:08:44.144Z,19.61
2018-06-20T00:11:25.426Z,19.59
2018-06-20T00:14:06.660Z,19.55
2018-06-20T00:16:46.420Z,19.53
2018-06-20T00:19:26.098Z,19.50
2018-06-20T00:22:03.602Z,19.48
2018-06-20T00:24:42.495Z,19.47
2018-06-20T00:27:22.240Z,19.45
2018-06-20T00:30:02.297Z,19.41
2018-06-20T00:32:41.817Z,19.39
2018-06-20T00:35:21.556Z,19.36
2018-06-20T00:38:01.742Z,19.33
2018-06-20T00:40:41.146Z,19.33
2018-06-20T00:43:25.159Z,19.32
2018-06-20T00:46:04.997Z,19.28
2018-06-20T00:48:44.881Z,19.24
2018-06-20T00:51:24.178Z,19.16
2018-06-20T00:54:02.515Z,19.06
2018-06-20T00:56:42.222Z,19.01
2018-06-20T00:59:22.100Z,19.00
2018-06-20T01:02:01.754Z,18.96
2018-06-20T01:04:41.359Z,18.86
2018-06-20T01:07:20.758Z,18.81
2018-06-20T01:10:00.048Z,18.83
2018-06-20T01:12:40.785Z,18.83
2018-06-20T01:15:26.659Z,18.78
2018-06-20T01:18:08.777Z,18.76
2018-06-20T01:20:50.266Z,18.78
2018-06-20T01:23:34.244Z,18.79
2018-06-20T01:26:15.104Z,18.81
2018-06-20T01:28:58.161Z,18.77
2018-06-20T01:31:37.759Z,18.72
2018-06-20T01:34:17.777Z,18.68
2018-06-20T01:36:58.782Z,18.66
2018-06-20T01:39:38.919Z,18.61
2018-06-20T01:42:18.340Z,18.59
2018-06-20T01:44:59.300Z,18.57
2018-06-20T01:47:40.404Z,18.52
2018-06-20T01:50:21.484Z,18.50
2018-06-20T01:53:02.683Z,18.52
2018-06-20T01:55:43.978Z,18.55
2018-06-20T01:58:25.345Z,18.53
2018-06-20T02:01:05.762Z,18.49
2018-06-20T02:03:47.895Z,18.47
2018-06-20T02:06:29.178Z,18.45
2018-06-20T02:09:08.536Z,18.42
2018-06-20T02:11:48.623Z,18.41
2018-06-20T02:14:28.302Z,18.43
2018-06-20T02:17:10.123Z,18.40
2018-06-20T02:19:49.419Z,18.31
2018-06-20T02:22:30.888Z,18.20
2018-06-20T02:25:10.639Z,18.19
2018-06-20T02:27:49.736Z,18.21
2018-06-20T02:30:30.104Z,18.25
2018-06-20T02:33:08.961Z,18.29
2018-06-20T02:35:48.181Z,18.33
2018-06-20T02:38:28.017Z,18.36
2018-06-20T02:41:07.576Z,18.35
2018-06-20T02:43:48.341Z,18.38
2018-06-20T02:46:28.260Z,18.38
2018-06-20T02:49:07.804Z,18.38
2018-06-20T02:51:48.778Z,18.45
2018-06-20T02:54:30.260Z,18.51
2018-06-20T02:57:09.465Z,18.54
2018-06-20T02:59:49.082Z,18.53
2018-06-20T03:02:29.339Z,18.50
2018-06-20T03:05:09.053Z,18.45
2018-06-20T03:07:49.396Z,18.44
2018-06-20T03:10:28.802Z,18.48
2018-06-20T03:13:09.660Z,18.53
2018-06-20T03:15:49.180Z,18.52
2018-06-20T03:18:28.756Z,18.43
2018-06-20T03:21:09.241Z,18.35
2018-06-20T03:23:46.597Z,18.32
2018-06-20T03:26:26.806Z,18.32
2018-06-20T03:29:05.778Z,18.35
2018-06-20T03:31:47.129Z,18.40
2018-06-20T03:34:26.562Z,18.46
2018-06-20T03:37:06.055Z,18.49
2018-06-20T03:39:46.101Z,18.48
2018-06-20T03:42:26.705Z,18.51
2018-06-20T03:45:06.205Z,18.49
2018-06-20T03:47:44.820Z,18.50
2018-06-20T03:50:24.980Z,18.50
2018-06-20T03:53:03.000Z,18.50
2018-06-20T03:55:45.853Z,18.53
2018-06-20T03:58:26.114Z,18.58
2018-06-20T04:01:04.979Z,18.61
2018-06-20T04:03:45.382Z,18.62
2018-06-20T04:06:24.819Z,18.68
2018-06-20T04:09:06.817Z,18.74
2018-06-20T04:11:46.822Z,18.80
2018-06-20T04:14:28.561Z,18.79
2018-06-20T04:17:09.228Z,18.81
2018-06-20T04:19:51.122Z,18.85
2018-06-20T04:22:29.820Z,18.90
2018-06-20T04:25:11.263Z,18.92
2018-06-20T04:27:55.723Z,18.94
2018-06-20T04:30:36.945Z,18.97
2018-06-20T04:33:17.164Z,19.02
2018-06-20T04:35:58.601Z,19.05
2018-06-20T04:38:39.227Z,19.08
2018-06-20T04:41:24.041Z,19.12
2018-06-20T04:44:08.062Z,19.19
2018-06-20T04:46:48.780Z,19.30
2018-06-20T04:49:29.120Z,19.37
2018-06-20T04:52:07.757Z,19.39
2018-06-20T04:54:50.901Z,19.42
2018-06-20T04:57:34.603Z,19.46
2018-06-20T05:00:14.423Z,19.48
2018-06-20T05:02:55.089Z,19.53
2018-06-20T05:05:34.435Z,19.56
2018-06-20T05:08:13.264Z,19.60
2018-06-20T05:10:53.161Z,19.66
2018-06-20T05:13:34.198Z,19.74
2018-06-20T05:16:14.177Z,19.82
2018-06-20T05:18:56.520Z,19.89
2018-06-20T05:21:37.464Z,19.96
2018-06-20T05:24:20.936Z,20.06
2018-06-20T05:27:00.963Z,20.08
2018-06-20T05:29:39.360Z,20.13
2018-06-20T05:32:17.942Z,20.22
2018-06-20T05:34:56.842Z,20.35
2018-06-20T05:37:34.442Z,20.46
2018-06-20T05:40:12.467Z,20.60
2018-06-20T05:42:57.357Z,20.72
2018-06-20T05:45:36.542Z,20.82
2018-06-20T05:48:15.017Z,20.90
2018-06-20T05:50:56.938Z,20.95
2018-06-20T05:53:42.079Z,20.97
2018-06-20T05:56:21.339Z,21.00
2018-06-20T05:59:02.836Z,21.03
2018-06-20T06:01:41.957Z,21.04
2018-06-20T06:04:21.302Z,21.07
2018-06-20T06:07:04.261Z,21.11
2018-06-20T06:09:47.979Z,21.16
2018-06-20T06:12:29.923Z,21.18
2018-06-20T06:15:11.467Z,21.22
2018-06-20T06:17:55.558Z,21.26
2018-06-20T06:20:37.061Z,21.29
2018-06-20T06:23:17.457Z,21.33
2018-06-20T06:26:03.463Z,21.38
2018-06-20T06:28:43.520Z,21.49
2018-06-20T06:31:22.624Z,21.65
2018-06-20T06:34:01.247Z,21.83
2018-06-20T06:36:43.084Z,22.05
2018-06-20T06:39:26.117Z,22.28
2018-06-20T06:42:15.300Z,22.54
2018-06-20T06:44:57.540Z,22.71
2018-06-20T06:47:39.197Z,22.88
2018-06-20T06:50:21.438Z,23.14
2018-06-20T06:53:06.401Z,23.36
2018-06-20T06:55:53.079Z,23.46
2018-06-20T06:58:35.942Z,23.55
2018-06-20T07:01:16.642Z,23.79
2018-06-20T07:03:57.201Z,24.15
2018-06-20T07:06:37.499Z,24.58
2018-06-20T07:09:21.089Z,25.11
2018-06-20T07:12:07.380Z,25.68
2018-06-20T07:14:45.818Z,26.23
2018-06-20T07:17:33.145Z,26.59
2018-06-20T07:20:13.701Z,27.05
2018-06-20T07:22:53.158Z,27.51
2018-06-20T07:25:35.038Z,28.01
2018-06-20T07:28:13.962Z,28.63
2018-06-20T07:30:57.566Z,29.16
2018-06-20T07:33:41.340Z,29.79
2018-06-20T07:36:19.934Z,30.31
2018-06-20T07:39:16.399Z,30.90
2018-06-20T07:44:45.983Z,31.98
2018-06-20T07:47:27.826Z,32.36
2018-06-20T07:50:19.036Z,32.58
2018-06-20T08:07:49.041Z,32.78
2018-06-20T08:10:28.981Z,32.83
2018-06-20T08:13:12.460Z,32.92
2018-06-20T08:15:56.382Z,33.03
2018-06-20T08:18:39.222Z,33.19
2018-06-20T08:21:20.859Z,33.20
2018-06-20T08:24:01.139Z,33.08
2018-06-20T08:26:39.341Z,32.98
2018-06-20T08:29:17.896Z,32.99
2018-06-20T08:31:56.756Z,33.00
2018-06-20T08:34:36.062Z,32.90
2018-06-20T08:37:15.426Z,32.43
2018-06-20T08:39:57.906Z,31.79
2018-06-20T08:42:37.862Z,31.40
2018-06-20T08:45:17.097Z,31.46
2018-06-20T08:47:57.360Z,31.30
2018-06-20T08:50:39.345Z,31.04
2018-06-20T08:53:22.839Z,31.12
2018-06-20T08:56:04.983Z,31.33
2018-06-20T08:58:50.596Z,31.55
2018-06-20T09:01:31.980Z,31.74
2018-06-20T09:04:16.859Z,31.88
2018-06-20T09:07:04.735Z,31.95
2018-06-20T09:09:53.866Z,31.94
2018-06-20T09:12:38.277Z,31.83
2018-06-20T09:15:20.414Z,31.49
2018-06-20T09:18:14.665Z,31.10
2018-06-20T09:20:58.963Z,30.72
2018-06-20T09:23:43.128Z,30.61
2018-06-20T09:26:26.381Z,30.71
2018-06-20T09:29:04.277Z,30.90
2018-06-20T09:31:42.646Z,30.86
2018-06-20T09:34:24.499Z,30.84
2018-06-20T09:37:09.821Z,30.89
2018-06-20T09:39:51.957Z,31.07
2018-06-20T09:42:30.722Z,31.24
2018-06-20T09:45:11.342Z,31.44
2018-06-20T09:47:54.436Z,31.70
2018-06-20T09:50:36.373Z,31.78
2018-06-20T09:53:18.918Z,31.96
2018-06-20T09:56:02.656Z,32.32
2018-06-20T09:58:42.240Z,32.71
2018-06-20T10:01:24.540Z,32.83
2018-06-20T10:04:08.400Z,32.68
2018-06-20T10:06:55.687Z,32.60
2018-06-20T10:09:40.901Z,32.50
2018-06-20T10:12:25.884Z,32.41
2018-06-20T10:15:04.874Z,32.42
2018-06-20T10:17:46.479Z,32.46
2018-06-20T10:20:35.499Z,32.55
2018-06-20T10:23:14.215Z,32.63
2018-06-20T10:25:56.082Z,32.69
2018-06-20T10:28:35.298Z,32.82
2018-06-20T10:31:14.504Z,32.91
2018-06-20T10:33:56.218Z,32.97
2018-06-20T10:36:42.319Z,33.04
2018-06-20T10:39:25.736Z,33.04
2018-06-20T10:42:03.102Z,33.14
2018-06-20T10:44:44.379Z,33.28
2018-06-20T10:47:26.821Z,33.34
2018-06-20T10:50:05.898Z,33.28
2018-06-20T10:52:45.920Z,33.15
2018-06-20T10:55:26.863Z,32.72
2018-06-20T10:58:11.601Z,32.49
2018-06-20T11:00:58.306Z,32.22
2018-06-20T11:03:42.643Z,31.65
2018-06-20T11:06:34.501Z,31.27
2018-06-20T11:09:19.937Z,31.02
2018-06-20T11:12:01.999Z,30.92
2018-06-20T11:14:42.180Z,30.80
2018-06-20T11:17:28.117Z,30.91
2018-06-20T11:20:12.462Z,30.82
2018-06-20T11:22:51.358Z,30.79
2018-06-20T11:25:29.983Z,30.73
2018-06-20T11:28:15.718Z,30.57
2018-06-20T11:30:54.164Z,30.34
2018-06-20T11:33:33.703Z,30.38
2018-06-20T11:36:19.443Z,30.27
2018-06-20T11:39:01.308Z,30.48
2018-06-20T11:41:41.379Z,30.75
2018-06-20T12:16:58.635Z,33.67
2018-06-20T12:19:42.000Z,33.62
2018-06-20T12:22:25.518Z,33.64
2018-06-20T12:25:09.522Z,33.68
2018-06-20T12:27:56.558Z,33.78
2018-06-20T12:30:43.480Z,33.99
2018-06-20T14:11:09.196Z,35.52
2018-06-20T14:13:53.719Z,35.53
2018-06-20T14:16:35.080Z,35.54
2018-06-20T14:19:23.121Z,35.55
2018-06-20T14:22:05.809Z,35.55
2018-06-20T14:24:45.578Z,35.50
2018-06-20T14:27:27.361Z,35.41
2018-06-20T14:30:08.879Z,35.33
2018-06-20T14:32:54.041Z,35.28
2018-06-20T14:35:42.220Z,35.24
2018-06-20T14:38:25.541Z,35.24
2018-06-20T14:41:09.302Z,35.18
2018-06-20T14:43:56.476Z,35.12
2018-06-20T14:46:38.145Z,35.00
2018-06-20T14:49:21.104Z,34.74
2018-06-20T14:52:01.979Z,34.55
2018-06-20T14:54:42.083Z,34.45
2018-06-20T14:57:20.825Z,34.37
2018-06-20T15:00:01.161Z,34.24
2018-06-20T15:02:41.238Z,34.28
2018-06-20T15:05:20.739Z,34.43
2018-06-20T15:08:06.181Z,34.53
2018-06-20T15:10:50.866Z,34.50
2018-06-20T15:13:36.976Z,34.20
2018-06-20T15:16:19.639Z,33.74
2018-06-20T15:19:06.543Z,33.71
2018-06-20T15:21:46.299Z,33.84
2018-06-20T15:24:28.304Z,33.90
2018-06-20T15:27:12.140Z,33.96
2018-06-20T15:29:56.822Z,34.02
2018-06-20T15:32:43.304Z,33.93
2018-06-20T15:35:29.139Z,33.59
2018-06-20T15:38:22.022Z,33.46
2018-06-20T15:41:08.181Z,33.53
2018-06-20T15:43:47.181Z,33.64
2018-06-20T15:46:33.200Z,33.76
2018-06-20T15:49:16.422Z,33.63
2018-06-20T15:51:54.725Z,33.31
2018-06-20T15:54:41.838Z,33.15
2018-06-20T15:57:23.700Z,33.19
2018-06-20T16:00:07.342Z,33.27
2018-06-20T16:02:57.220Z,33.28
2018-06-20T16:05:40.281Z,33.28
2018-06-20T16:08:22.180Z,33.27
2018-06-20T16:11:02.038Z,33.23
2018-06-20T16:13:43.698Z,33.26
2018-06-20T16:16:22.845Z,33.29
2018-06-20T16:19:13.181Z,33.29
2018-06-20T16:21:56.019Z,33.24
2018-06-20T16:24:40.182Z,33.23
2018-06-20T16:27:27.120Z,33.20
2018-06-20T16:30:12.760Z,33.11
2018-06-20T16:32:58.979Z,33.01
2018-06-20T16:35:42.919Z,32.95
2018-06-20T16:38:23.319Z,32.85
2018-06-20T16:41:04.340Z,32.78
2018-06-20T16:43:43.253Z,32.70
2018-06-20T16:46:24.581Z,32.63
2018-06-20T16:49:04.424Z,32.58
2018-06-20T16:51:44.457Z,32.57
2018-06-20T16:54:20.683Z,32.48
2018-06-20T16:57:01.844Z,32.36
2018-06-20T16:59:50.386Z,32.22
2018-06-20T17:02:32.176Z,32.10
2018-06-20T17:05:12.918Z,32.01
2018-06-20T17:07:55.880Z,31.90
2018-06-20T17:10:39.236Z,31.77
2018-06-20T17:13:24.781Z,31.69
2018-06-20T17:16:08.960Z,31.60
2018-06-20T17:18:56.944Z,31.52
2018-06-20T17:21:38.516Z,31.43
2018-06-20T17:24:22.242Z,31.35
2018-06-20T17:27:01.922Z,31.28
2018-06-20T17:29:40.059Z,31.20
2018-06-20T17:32:21.265Z,31.10
2018-06-20T17:35:07.002Z,30.99
2018-06-20T17:37:55.663Z,30.89
2018-06-20T17:40:34.185Z,30.82
2018-06-20T17:43:15.963Z,30.77
2018-06-20T17:45:57.603Z,30.70
2018-06-20T17:48:43.339Z,30.63
2018-06-20T17:51:29.688Z,30.55
2018-06-20T17:54:16.325Z,30.48
2018-06-20T17:56:55.937Z,30.39
2018-06-20T17:59:34.582Z,30.27
2018-06-20T18:02:14.783Z,30.21
2018-06-20T18:05:00.658Z,30.16
2018-06-20T18:07:45.121Z,30.08
2018-06-20T18:10:29.459Z,29.98
2018-06-20T18:13:23.680Z,29.87
2018-06-20T18:16:11.058Z,29.75
2018-06-20T18:18:54.359Z,29.67
2018-06-20T18:21:41.477Z,29.60
2018-06-20T18:24:26.081Z,29.51
2018-06-20T18:27:07.065Z,29.44
2018-06-20T18:29:54.126Z,29.35
2018-06-20T18:32:32.625Z,29.27
2018-06-20T18:35:12.676Z,29.18
2018-06-20T18:37:56.141Z,29.07
2018-06-20T18:40:35.880Z,28.98
2018-06-20T18:43:13.643Z,28.86
2018-06-20T18:45:54.784Z,28.75
2018-06-20T18:48:35.121Z,28.63
2018-06-20T18:51:18.883Z,28.54
2018-06-20T18:54:01.857Z,28.44
2018-06-20T18:56:39.821Z,28.37
2018-06-20T18:59:26.995Z,28.27
2018-06-20T19:02:12.523Z,28.16
2018-06-20T19:05:00.900Z,28.07
2018-06-20T19:07:45.778Z,27.97
2018-06-20T19:10:24.058Z,27.89
2018-06-20T19:13:09.447Z,27.78
2018-06-20T19:15:54.521Z,27.69
2018-06-20T19:18:37.065Z,27.63
2018-06-20T19:21:18.375Z,27.55
2018-06-20T19:23:58.321Z,27.47
2018-06-20T19:26:41.642Z,27.37
2018-06-20T19:29:24.567Z,27.26
2018-06-20T19:32:05.183Z,27.16
2018-06-20T19:34:45.348Z,27.07
2018-06-20T19:37:27.379Z,27.01
2018-06-20T19:40:11.520Z,26.91
2018-06-20T19:42:52.097Z,26.83
2018-06-20T19:45:33.795Z,26.75
2018-06-20T19:48:15.963Z,26.66
2018-06-20T19:51:01.839Z,26.56
2018-06-20T19:53:45.829Z,26.47
2018-06-20T19:56:28.160Z,26.38
2018-06-20T19:59:08.021Z,26.27
2018-06-20T20:01:48.028Z,26.18
2018-06-20T20:04:28.645Z,26.07
2018-06-20T20:07:13.623Z,25.96
2018-06-20T20:09:54.882Z,25.87
2018-06-20T20:12:35.423Z,25.76
2018-06-20T20:15:18.078Z,25.66
2018-06-20T20:17:56.120Z,25.57
2018-06-20T20:20:36.113Z,25.48
2018-06-20T20:23:17.464Z,25.42
2018-06-20T20:26:01.965Z,25.39
2018-06-20T20:28:43.382Z,25.34
2018-06-20T20:31:25.338Z,25.27
2018-06-20T20:34:05.102Z,25.22
2018-06-20T20:36:44.759Z,25.12
2018-06-20T20:39:24.666Z,25.00
2018-06-20T20:42:08.520Z,24.94
2018-06-20T20:44:50.139Z,24.86
2018-06-20T20:47:33.741Z,24.79
2018-06-20T20:50:14.208Z,24.72
2018-06-20T20:52:53.776Z,24.60
2018-06-20T20:55:34.065Z,24.52
2018-06-20T20:58:13.879Z,24.43
2018-06-20T22:34:27.457Z,22.67
2018-06-20T22:37:08.526Z,22.65
2018-06-20T22:39:47.823Z,22.58
2018-06-20T22:42:27.527Z,22.56
2018-06-20T22:45:07.577Z,22.54
2018-06-20T22:47:48.137Z,22.53
2018-06-20T22:50:28.178Z,22.52
2018-06-20T22:53:08.862Z,22.47
